Latest Weather Observations for Condobolin Airport

IDN60801

Issued at 7:42 pm EST Wednesday 12 August 2020 (issued every 10 minutes, with the page automatically refreshed every 10 minutes)

About weather observations | Map of weather stations | Latest weather observations for NSW | Other Formats
Station Details ID: 050137 Name: CONDOBOLIN AIRPORT AWS Lat: -33.07 Lon: 147.21 Height: 192.6 m
Data from the previous 72 hours. | See also: Recent months at Condobolin Airport
Date/Time
EST
Temp
°C
App
Temp
°C
Dew
Point
°C
Rel
Hum
%
Delta-T
°C
Wind Press
QNH
hPa
Press
MSL
hPa
Rain since
9am
mm
Dir  Spd
km/h
Gust
km/h
Spd
kts
Gust
kts
12/07:30pm 12.4 9.9 11.0 91 0.7 N 15 20 8 11 1011.1 1011.3 0.2
12/07:00pm 11.9 9.9 10.0 88 1.0 NE 11 13 6 7 1010.7 1010.9 0.2
12/06:30pm 11.1 9.0 9.7 91 0.7 NNE 11 13 6 7 1010.6 1010.8 0.2
12/06:00pm 13.0 11.5 10.4 84 1.4 NNE 9 11 5 6 1010.3 1010.5 0.2
12/05:30pm 14.8 13.4 10.8 77 2.1 NNE 9 11 5 6 1010.1 1010.3 0.2
12/05:00pm 17.3 16.3 12.2 72 2.8 N 9 11 5 6 1010.0 1010.1 0.2
12/04:30pm 18.0 15.5 11.1 64 3.8 N 15 20 8 11 1010.0 1010.1 0.2
12/04:00pm 19.0 17.6 12.3 65 3.8 N 11 17 6 9 1010.0 1010.1 0.2
12/03:30pm 18.6 16.2 11.4 63 4.0 NNE 15 20 8 11 1009.9 1010.0 0.2
12/03:00pm 18.2 15.9 11.7 66 3.6 NE 15 19 8 10 1010.0 1010.1 0.2
12/02:30pm 17.9 15.5 11.5 66 3.5 NNE 15 20 8 11 1010.4 1010.6 0.0
12/02:00pm 17.1 14.5 10.7 66 3.5 NNE 15 20 8 11 1010.7 1010.9 0.0
12/01:30pm 16.0 14.9 11.8 76 2.3 ENE 9 13 5 7 1011.1 1011.3 0.0
12/01:00pm 15.1 13.8 11.1 77 2.2 E 9 13 5 7 1011.5 1011.7 0.0
12/12:30pm 14.7 12.7 11.5 81 1.7 E 13 17 7 9 1012.1 1012.3 0.0
12/12:00pm 14.4 12.6 10.8 79 1.9 ENE 11 15 6 8 1012.6 1012.8 0.0
12/11:30am 13.5 11.3 10.7 83 1.5 ENE 13 19 7 10 1013.2 1013.4 0.0
12/11:00am 12.3 10.6 9.7 84 1.3 ENE 9 15 5 8 1013.7 1013.9 0.0
12/10:30am 12.2 8.5 9.4 83 1.4 NE 19 26 10 14 1014.2 1014.3 0.0
12/10:00am 12.2 8.7 10.1 87 1.1 NNE 19 22 10 12 1014.5 1014.7 0.0
12/09:30am 11.6 8.5 10.2 91 0.7 NNE 17 24 9 13 1014.6 1014.8 0.0
12/09:00am 11.3 6.7 9.6 89 0.9 NNE 24 32 13 17 1015.0 1015.2 0.0
12/08:30am 11.3 5.0 8.9 85 1.2 N 32 41 17 22 1015.1 1015.3 0.0
12/08:00am 11.1 5.5 8.7 85 1.2 N 28 39 15 21 1015.1 1015.3 0.0
12/07:30am 11.2 5.9 8.4 83 1.4 N 26 33 14 18 1015.1 1015.3 0.0
12/07:26am 11.4 5.8 8.6 83 1.4 N 28 39 15 21 1015.1 1015.3 0.0
12/07:00am 10.5 7.6 8.1 85 1.2 NE 13 19 7 10 1014.5 1014.7 0.0
12/06:30am 9.6 6.7 8.0 90 0.8 NE 13 19 7 10 1014.6 1014.8 0.0
12/06:00am 8.6 6.2 7.2 91 0.7 ESE 9 9 5 5 1014.7 1014.9 0.0
12/05:30am 8.5 6.7 7.0 90 0.7 ESE 6 7 3 4 1014.5 1014.7 0.0
12/05:00am 9.2 6.9 7.5 89 0.8 ENE 9 11 5 6 1014.4 1014.6 0.0
12/04:30am 9.4 6.4 7.7 89 0.8 NE 13 17 7 9 1014.2 1014.3 0.0
12/04:00am 9.0 6.0 7.6 91 0.7 NNE 13 17 7 9 1014.5 1014.7 0.0
12/03:30am 9.5 5.7 7.6 88 0.9 NE 17 20 9 11 1014.2 1014.3 0.0
12/03:00am 8.1 5.0 7.2 94 0.4 ENE 13 15 7 8 1014.6 1014.8 0.0
12/02:30am 7.7 5.3 6.8 94 0.4 ENE 9 11 5 6 1014.9 1015.1 0.0
12/02:00am 7.3 4.0 6.6 95 0.3 ENE 13 13 7 7 1015.2 1015.4 0.0
12/01:30am 6.7 4.1 6.0 95 0.3 ENE 9 11 5 6 1015.8 1016.0 0.0
12/01:00am 7.6 6.9 6.9 95 0.3 CALM 0 0 0 0 1016.0 1016.2 0.0
12/12:30am 7.1 5.9 6.4 95 0.3 E 2 7 1 4 1015.9 1016.1 0.0
12/12:00am 7.1 6.3 6.4 95 0.3 CALM 0 0 0 0 1016.2 1016.4 0.0
 
Date/Time
EST
Temp
°C
App
Temp
°C
Dew
Point
°C
Rel
Hum
%
Delta-T
°C
Wind Press
QNH
hPa
Press
MSL
hPa
Rain since
9am
mm
Dir  Spd
km/h
Gust
km/h
Spd
kts
Gust
kts
11/11:30pm 7.3 6.5 6.4 94 0.4 CALM 0 0 0 0 1016.1 1016.3 0.0
11/11:00pm 7.6 6.1 6.9 95 0.3 E 4 7 2 4 1016.1 1016.3 0.0
11/10:30pm 7.1 4.6 6.5 96 0.3 E 9 11 5 6 1016.4 1016.6 0.0
11/10:00pm 7.1 4.6 6.4 95 0.3 E 9 9 5 5 1016.9 1017.1 0.0
11/09:30pm 7.3 6.5 6.4 94 0.4 CALM 0 6 0 3 1017.3 1017.5 0.0
11/09:00pm 7.9 6.8 6.8 93 0.5 NNE 2 7 1 4 1017.2 1017.4 0.0
11/08:30pm 7.4 5.2 6.3 93 0.5 NE 7 9 4 5 1016.9 1017.1 0.0
11/08:00pm 8.1 6.0 6.6 90 0.7 NNE 7 9 4 5 1017.0 1017.2 0.0
11/07:30pm 9.4 7.4 7.3 87 1.0 NNE 7 9 4 5 1017.0 1017.2 0.0
11/07:00pm 9.2 6.8 6.8 85 1.1 NE 9 11 5 6 1016.8 1017.0 0.0
11/06:30pm 10.6 8.3 7.3 80 1.6 NE 9 11 5 6 1016.3 1016.5 0.0
11/06:00pm 11.1 8.6 8.0 81 1.5 ENE 11 15 6 8 1016.0 1016.2 0.0
11/05:30pm 11.6 9.2 8.8 83 1.4 E 11 13 6 7 1016.3 1016.5 0.0
11/05:00pm 12.5 11.3 9.7 83 1.4 NNE 6 7 3 4 1017.3 1017.5 0.0
11/04:30pm 13.3 12.1 9.4 77 2.0 NE 6 7 3 4 1017.1 1017.3 0.0
11/04:00pm 13.8 12.4 8.8 72 2.5 NE 6 9 3 5 1017.4 1017.6 0.0
11/03:30pm 14.3 12.6 8.3 67 3.0 NNE 7 11 4 6 1017.4 1017.6 0.0
11/03:00pm 14.5 11.8 7.5 63 3.5 NNE 11 15 6 8 1017.4 1017.6 0.0
11/02:30pm 14.6 11.6 7.9 64 3.4 N 13 17 7 9 1017.5 1017.7 0.0
11/02:00pm 15.9 11.5 7.4 57 4.3 N 20 28 11 15 1017.5 1017.7 0.0
11/01:30pm 15.0 10.1 7.1 59 3.9 NNE 22 30 12 16 1017.5 1017.7 0.0
11/01:00pm 14.7 10.0 6.0 56 4.2 NNE 20 30 11 16 1018.2 1018.4 0.0
11/12:30pm 14.8 9.7 6.1 56 4.2 NNE 22 30 12 16 1018.9 1019.2 0.0
11/12:00pm 15.4 10.7 6.2 54 4.5 NNE 20 26 11 14 1019.7 1019.9 0.0
11/11:30am 14.9 9.7 5.7 54 4.4 NNE 22 28 12 15 1020.3 1020.5 0.0
11/11:00am 14.2 10.2 6.8 61 3.6 NNE 17 24 9 13 1020.4 1020.6 0.0
11/10:30am 13.8 9.9 7.1 64 3.3 NE 17 22 9 12 1020.5 1020.7 0.0
11/10:00am 11.5 8.8 7.4 76 2.0 ENE 11 13 6 7 1020.9 1021.1 0.0
11/09:30am 9.2 6.9 7.5 89 0.8 ESE 9 15 5 8 1020.9 1021.1 0.0
11/09:00am 7.7 6.9 6.6 93 0.5 CALM 0 0 0 0 1021.2 1021.4 0.0
11/08:30am 5.6 4.6 5.5 99 0.0 CALM 0 0 0 0 1021.4 1021.6 0.0
11/08:00am 4.1 2.8 4.0 99 0.0 CALM 0 0 0 0 1021.3 1021.5 0.0
11/07:30am 1.7 -0.4 1.6 99 0.0 NE 2 7 1 4 1020.7 1020.9 0.0
11/07:00am 0.7 -3.3 0.6 99 0.0 E 11 13 6 7 1020.4 1020.6 0.0
11/06:30am -0.1 -2.1 -0.2 99 0.0 CALM 0 0 0 0 1020.3 1020.5 0.0
11/06:00am 0.5 -1.8 0.4 99 0.0 WSW 2 7 1 4 1020.5 1020.7 0.0
11/05:30am 1.4 -1.5 1.3 99 0.0 SE 6 7 3 4 1020.3 1020.5 0.0
11/05:00am 1.3 -1.3 1.2 99 0.0 E 4 7 2 4 1020.2 1020.4 0.0
11/04:30am 2.1 -0.9 2.0 99 0.0 E 7 9 4 5 1020.0 1020.2 0.0
11/04:00am 1.6 -1.9 1.5 99 0.0 ENE 9 11 5 6 1019.9 1020.1 0.0
11/03:30am 2.4 0.0 2.3 99 0.0 ENE 4 7 2 4 1020.0 1020.2 0.0
11/03:00am 2.1 0.4 2.0 99 0.0 CALM 0 0 0 0 1019.9 1020.1 0.0
11/02:30am 1.6 -1.5 1.5 99 0.0 ENE 7 9 4 5 1020.0 1020.2 0.0
11/02:00am 2.5 -0.8 2.4 99 0.0 ENE 9 9 5 5 1020.2 1020.4 0.0
11/01:30am 2.7 1.1 2.4 98 0.1 CALM 0 0 0 0 1020.5 1020.7 0.0
11/01:00am 1.3 -0.5 0.9 97 0.2 CALM 0 0 0 0 1020.7 1020.9 0.0
11/12:30am 3.3 1.8 2.9 97 0.2 CALM 0 0 0 0 1021.0 1021.2 0.0
11/12:00am 3.0 1.4 2.4 96 0.2 CALM 0 0 0 0 1021.3 1021.5 0.0
 
Date/Time
EST
Temp
°C
App
Temp
°C
Dew
Point
°C
Rel
Hum
%
Delta-T
°C
Wind Press
QNH
hPa
Press
MSL
hPa
Rain since
9am
mm
Dir  Spd
km/h
Gust
km/h
Spd
kts
Gust
kts
10/11:30pm 3.7 2.2 3.1 96 0.2 CALM 0 7 0 4 1021.3 1021.5 0.0
10/11:00pm 3.4 1.8 2.7 95 0.3 CALM 0 0 0 0 1021.2 1021.4 0.0
10/10:30pm 4.2 2.8 3.6 96 0.3 CALM 0 4 0 2 1021.3 1021.5 0.0
10/10:00pm 3.9 2.3 2.4 90 0.6 CALM 0 0 0 0 1021.4 1021.6 0.0
10/09:30pm 5.7 4.4 3.9 88 0.8 CALM 0 0 0 0 1021.2 1021.4 0.0
10/09:00pm 6.3 5.1 4.6 89 0.7 CALM 0 0 0 0 1021.3 1021.5 0.0
10/08:30pm 5.9 3.6 4.7 92 0.5 S 6 9 3 5 1021.0 1021.2 0.0
10/08:00pm 7.2 5.4 5.5 89 0.8 SSW 4 7 2 4 1020.6 1020.8 0.0
10/07:30pm 7.0 5.7 4.0 81 1.3 CALM 0 4 0 2 1020.1 1020.3 0.0
10/07:00pm 9.5 6.9 6.2 80 1.5 SE 9 11 5 6 1019.7 1019.9 0.0
10/06:30pm 10.2 7.5 5.8 74 2.0 SSE 9 11 5 6 1019.4 1019.7 0.0
10/06:00pm 11.7 9.2 6.6 71 2.4 SSE 9 11 5 6 1019.6 1019.8 0.0
10/05:30pm 12.5 10.1 7.0 69 2.7 S 9 11 5 6 1019.6 1019.8 0.0
10/05:00pm 13.7 11.0 7.2 65 3.2 SSE 11 17 6 9 1019.1 1019.4 0.0
10/04:30pm 15.1 11.6 7.4 60 3.8 SE 15 22 8 12 1019.1 1019.4 0.0
10/04:00pm 14.3 10.2 6.4 59 3.8 SSE 17 20 9 11 1018.9 1019.2 0.0
10/03:30pm 14.5 10.5 6.8 60 3.8 SSE 17 28 9 15 1019.1 1019.4 0.0
10/03:00pm 14.7 10.4 7.0 60 3.8 SSE 19 28 10 15 1019.0 1019.3 0.0
10/02:30pm 14.6 10.1 6.9 60 3.8 SSE 20 30 11 16 1019.0 1019.3 0.0
10/02:00pm 15.2 10.4 7.5 60 3.8 SE 22 33 12 18 1018.9 1019.2 0.0
10/01:30pm 15.0 10.6 7.3 60 3.8 SE 20 32 11 17 1019.0 1019.3 0.0
10/01:00pm 14.7 9.6 7.5 62 3.6 SSE 24 35 13 19 1019.2 1019.5 0.0
10/12:30pm 14.8 9.6 7.1 60 3.8 SSE 24 37 13 20 1019.3 1019.6 0.0
10/12:00pm 14.2 7.6 6.1 58 3.9 SSE 30 43 16 23 1019.6 1019.8 0.0
10/11:30am 14.3 8.0 5.9 57 4.0 SSE 28 39 15 21 1019.8 1020.0 0.0
10/11:00am 13.6 7.4 6.2 61 3.6 SSE 28 41 15 22 1019.9 1020.1 0.0
10/10:30am 13.0 7.4 7.0 67 2.9 SE 26 39 14 21 1019.9 1020.1 0.0
10/10:00am 12.7 8.3 7.4 70 2.6 SE 20 30 11 16 1019.8 1020.0 0.0
10/09:30am 11.9 6.9 6.6 70 2.5 SE 22 32 12 17 1019.7 1019.9 0.0
10/09:00am 10.7 7.0 6.3 74 2.1 SSE 15 20 8 11 1019.6 1019.8 3.8
10/08:30am 9.1 6.1 5.8 80 1.5 S 11 15 6 8 1019.1 1019.4 3.8
10/08:00am 6.6 3.5 5.4 92 0.5 SW 11 15 6 8 1018.9 1019.2 3.8
10/07:30am 4.7 1.6 3.8 94 0.4 WSW 9 13 5 7 1018.5 1018.7 3.8
10/07:00am 4.3 1.1 3.3 93 0.4 W 9 11 5 6 1018.2 1018.4 3.8
10/06:30am 5.2 1.4 4.0 92 0.5 SSW 13 17 7 9 1017.6 1017.8 3.8
10/06:00am 5.5 2.0 3.7 88 0.8 SW 11 13 6 7 1017.4 1017.6 3.8
10/05:30am 7.3 3.7 4.8 84 1.1 S 13 17 7 9 1016.6 1016.8 3.8
10/05:00am 7.4 4.2 5.0 85 1.1 S 11 15 6 8 1016.5 1016.7 3.8
10/04:30am 6.3 2.2 4.6 89 0.7 SSW 15 20 8 11 1016.2 1016.4 3.8
10/04:00am 6.9 2.9 5.1 88 0.8 SSW 15 20 8 11 1015.8 1016.0 3.8
10/03:30am 7.3 2.7 5.6 89 0.8 SSW 19 26 10 14 1015.6 1015.8 3.8
10/03:00am 7.7 3.1 6.5 92 0.6 SSW 20 28 11 15 1015.4 1015.6 3.8
10/02:30am 7.3 3.8 7.3 100 0.0 SW 15 20 8 11 1015.4 1015.6 3.8
10/02:00am 6.5 3.2 6.5 100 0.0 WSW 13 17 7 9 1015.2 1015.4 3.8
10/01:30am 7.1 4.0 7.1 100 0.0 WSW 13 17 7 9 1015.2 1015.4 3.8
10/01:00am 7.8 4.8 7.8 100 0.0 SW 13 17 7 9 1015.2 1015.4 3.8
10/12:30am 8.1 4.4 8.1 100 0.0 WSW 17 20 9 11 1015.1 1015.3 3.8
10/12:00am 8.0 4.7 8.0 100 0.0 WSW 15 19 8 10 1015.0 1015.2 3.8
 
Date/Time
EST
Temp
°C
App
Temp
°C
Dew
Point
°C
Rel
Hum
%
Delta-T
°C
Wind Press
QNH
hPa
Press
MSL
hPa
Rain since
9am
mm
Dir  Spd
km/h
Gust
km/h
Spd
kts
Gust
kts
09/11:30pm 7.8 4.8 7.7 99 0.0 WSW 13 17 7 9 1015.3 1015.5 3.8
09/11:00pm 7.6 5.3 7.5 99 0.0 WSW 9 13 5 7 1015.6 1015.8 3.8
09/10:30pm 7.5 4.4 7.4 99 0.0 W 13 19 7 10 1015.5 1015.7 3.8
09/10:00pm 7.4 4.6 7.1 98 0.1 WSW 11 15 6 8 1015.4 1015.6 3.8
09/09:30pm 7.9 4.5 7.6 98 0.1 WSW 15 20 8 11 1015.3 1015.5 3.8
09/09:00pm 8.3 4.6 8.0 98 0.1 WSW 17 22 9 12 1015.3 1015.5 3.8
09/08:30pm 8.7 5.1 8.3 97 0.2 WSW 17 24 9 13 1015.2 1015.4 3.8
09/08:00pm 8.7 5.1 8.4 98 0.1 WSW 17 20 9 11 1015.0 1015.2 3.8

Other formats

Comma delimited format used in spreadsheet applications
http://www.bom.gov.au/fwo/IDN60801/IDN60801.95708.axf

JavaScript Object Notation format (JSON) in row-major order
http://www.bom.gov.au/fwo/IDN60801/IDN60801.95708.json

Data quality

Most of these data are generated automatically and are frequently updated. Quality checks on data are not normally performed. It is possible for incorrect values to appear. Refer to information at About Latest Weather Observations and please check the disclaimer before using these data.